Canton, Iowa
Current Conditions -  °F | °C
As of 2:55 PM on Thursday 27 Nov 2014 (Local Time) from KMXO Reporting Station
Clear Clear  
Wind Chill:   Ceiling: Unl
Heat Index: 18°   Visibility: 10mi
Dew Point:   Wind: 9mph
Humidity: 53%   Direction: 290°WNW
Pressure: 30.42"   Gusts: 16mph
Location:  42.0817°N, 90.8725°W
Report Text: KMXO 272055Z AUTO 29008G14KT 10SM CLR M08/M16 A3042 RMK AO2
Loading
Personal Weather Stations






























Interactive Weather Map New forecast layout! Learn more

10-Day Weather Forecast

Advertisements
Track Severe Weather on mobile